Time;durP1;ratioP1;P1;durP2;ratioP2;P2;SDS_P1;SDS_P2;PMS_P1;PMS_P2;Temp;Humidity;BMP_temperature;BMP_pressure;BME280_temperature;BME280_humidity;BME280_pressure;Samples;Min_cycle;Max_cycle;Signal;HPM_P1;HPM_P2
2024/01/14 00:01:16;;;;;;;8.77;7.78;;;3.20;1.00;;;;;;5114168;28;20345;-77
2024/01/14 00:03:45;;;;;;;13.45;9.43;;;3.20;1.00;;;;;;5104674;28;20858;-75
2024/01/14 00:06:13;;;;;;;12.25;8.57;;;3.20;1.00;;;;;;5112094;28;20239;-76
2024/01/14 00:08:40;;;;;;;9.75;7.03;;;3.30;1.00;;;;;;5112640;28;20322;-76
2024/01/14 00:11:09;;;;;;;8.30;6.88;;;3.30;1.00;;;;;;5108979;28;20235;-76
2024/01/14 00:13:38;;;;;;;9.38;7.22;;;3.30;1.00;;;;;;5113702;27;20239;-77
2024/01/14 00:16:07;;;;;;;7.07;5.82;;;3.30;1.00;;;;;;5112869;27;20231;-76
2024/01/14 00:18:34;;;;;;;9.50;6.40;;;3.20;1.00;;;;;;5113714;27;20227;-77
2024/01/14 00:21:01;;;;;;;7.28;6.10;;;3.30;1.00;;;;;;5114643;28;20232;-77
2024/01/14 00:23:28;;;;;;;9.27;6.00;;;3.30;1.00;;;;;;5109283;28;20389;-75
2024/01/14 00:25:55;;;;;;;7.28;5.80;;;3.30;1.00;;;;;;5109356;28;20242;-73
2024/01/14 00:28:23;;;;;;;10.98;7.90;;;3.30;1.00;;;;;;5105469;28;20784;-72
2024/01/14 00:30:51;;;;;;;10.88;7.78;;;3.30;1.00;;;;;;5108319;28;20737;-72
2024/01/14 00:33:21;;;;;;;10.10;7.38;;;3.30;1.00;;;;;;5111689;28;20733;-72
2024/01/14 00:35:49;;;;;;;10.10;8.27;;;3.30;1.00;;;;;;5110841;28;20329;-72
2024/01/14 00:38:16;;;;;;;10.82;8.77;;;3.30;1.00;;;;;;5090547;28;20297;-74
2024/01/14 00:40:45;;;;;;;12.27;10.15;;;3.30;1.00;;;;;;5108904;28;20331;-72
2024/01/14 00:43:12;;;;;;;8.50;7.60;;;3.30;1.00;;;;;;5108509;28;20243;-74
2024/01/14 00:45:41;;;;;;;8.38;6.70;;;3.40;1.00;;;;;;5107949;27;20239;-72
2024/01/14 00:48:08;;;;;;;10.60;7.55;;;3.30;1.00;;;;;;5110046;28;20285;-72
2024/01/14 00:50:35;;;;;;;10.60;7.38;;;3.30;1.00;;;;;;5110190;28;20239;-74
2024/01/14 00:53:02;;;;;;;9.65;7.38;;;3.30;1.00;;;;;;5108592;28;20242;-73
2024/01/14 00:55:31;;;;;;;9.57;6.47;;;3.30;1.00;;;;;;5111105;28;20342;-76
2024/01/14 00:57:58;;;;;;;9.45;7.15;;;3.30;1.00;;;;;;5109891;28;20232;-74
2024/01/14 01:00:26;;;;;;;7.85;6.03;;;3.40;1.00;;;;;;5110406;28;20327;-72
2024/01/14 01:02:55;;;;;;;10.82;7.40;;;3.30;1.00;;;;;;5110274;28;20235;-72
2024/01/14 01:05:22;;;;;;;7.72;6.35;;;3.30;1.00;;;;;;5091773;28;20792;-72
2024/01/14 01:07:49;;;;;;;9.77;6.38;;;3.30;1.00;;;;;;5111577;27;20259;-72
2024/01/14 01:10:16;;;;;;;10.70;7.55;;;3.30;1.00;;;;;;5109556;27;20313;-71
2024/01/14 01:12:43;;;;;;;8.20;6.53;;;3.30;1.00;;;;;;5100681;27;20235;-71
2024/01/14 01:15:10;;;;;;;10.35;6.53;;;3.30;1.00;;;;;;5109960;28;20242;-74
2024/01/14 01:17:37;;;;;;;7.68;5.28;;;3.30;1.00;;;;;;5110639;28;20992;-73
2024/01/14 01:20:08;;;;;;;5.55;4.75;;;3.30;1.00;;;;;;5110088;28;20235;-71
2024/01/14 01:22:36;;;;;;;8.15;5.78;;;3.30;1.00;;;;;;5110912;28;20239;-70
2024/01/14 01:25:10;;;;;;;6.60;4.70;;;3.30;1.00;;;;;;5109629;28;20231;-72
2024/01/14 01:27:37;;;;;;;6.95;4.40;;;3.20;1.00;;;;;;5109252;28;20269;-75
2024/01/14 01:30:06;;;;;;;7.40;4.40;;;3.20;1.00;;;;;;5111830;28;20246;-73
2024/01/14 01:32:33;;;;;;;6.28;4.07;;;3.10;1.00;;;;;;5110017;28;20231;-74
2024/01/14 01:35:00;;;;;;;5.90;4.68;;;3.10;1.00;;;;;;5104050;27;20297;-75
2024/01/14 01:37:31;;;;;;;6.90;4.60;;;3.10;1.00;;;;;;5108817;28;20242;-73
2024/01/14 01:39:58;;;;;;;4.70;3.75;;;3.10;1.00;;;;;;5107862;28;20259;-71
2024/01/14 01:42:25;;;;;;;4.90;3.53;;;3.10;1.00;;;;;;5108106;28;20257;-73
2024/01/14 01:44:52;;;;;;;6.10;4.65;;;3.00;1.00;;;;;;5110721;28;20239;-73
2024/01/14 01:47:21;;;;;;;5.32;4.43;;;3.10;1.00;;;;;;5110339;28;20228;-73
2024/01/14 01:49:50;;;;;;;4.60;4.10;;;3.00;1.00;;;;;;5110372;28;20239;-73
2024/01/14 01:52:19;;;;;;;6.68;4.05;;;3.00;1.00;;;;;;5110241;28;20734;-72
2024/01/14 01:54:50;;;;;;;7.22;4.25;;;3.00;1.00;;;;;;5100151;28;20315;-71
2024/01/14 01:57:18;;;;;;;5.15;3.95;;;3.00;1.00;;;;;;5106171;27;20227;-73
2024/01/14 01:59:48;;;;;;;4.60;3.97;;;3.00;1.00;;;;;;5106713;28;20291;-73
2024/01/14 02:02:16;;;;;;;5.45;4.00;;;3.00;1.00;;;;;;5100739;28;20262;-74
2024/01/14 02:04:43;;;;;;;5.70;3.85;;;3.00;1.00;;;;;;5110605;28;20243;-71
2024/01/14 02:07:11;;;;;;;5.35;3.85;;;3.00;1.00;;;;;;5110185;27;20255;-73
2024/01/14 02:09:39;;;;;;;5.70;3.80;;;3.00;1.00;;;;;;5108790;28;20346;-71
2024/01/14 02:12:07;;;;;;;4.75;4.07;;;3.00;1.00;;;;;;5110164;28;20238;-72
2024/01/14 02:14:36;;;;;;;6.13;4.13;;;2.90;1.00;;;;;;5102868;28;20259;-73
2024/01/14 02:17:03;;;;;;;9.90;4.68;;;2.90;1.00;;;;;;5110026;28;20259;-72
2024/01/14 02:19:29;;;;;;;6.63;5.10;;;2.80;1.00;;;;;;5108163;28;20731;-71
2024/01/14 02:22:00;;;;;;;8.65;4.32;;;2.90;1.00;;;;;;5112046;27;20326;-76
2024/01/14 02:24:31;;;;;;;7.68;4.78;;;2.90;1.00;;;;;;5110493;28;20231;-72
2024/01/14 02:26:58;;;;;;;8.18;4.57;;;2.80;1.00;;;;;;5113374;27;20246;-72
2024/01/14 02:29:27;;;;;;;5.53;4.10;;;2.80;1.00;;;;;;5111469;28;20718;-72
2024/01/14 02:31:54;;;;;;;5.82;4.10;;;2.90;1.00;;;;;;5112468;28;21028;-74
2024/01/14 02:34:21;;;;;;;6.63;4.38;;;2.80;1.00;;;;;;5104940;28;20701;-72
2024/01/14 02:36:48;;;;;;;5.93;4.20;;;2.90;1.00;;;;;;5111811;28;20258;-71
2024/01/14 02:39:16;;;;;;;7.50;3.30;;;2.90;1.00;;;;;;5108257;28;20637;-72
2024/01/14 02:41:45;;;;;;;5.68;3.25;;;2.90;1.00;;;;;;5113168;28;21118;-72
2024/01/14 02:44:12;;;;;;;6.35;4.30;;;2.90;1.00;;;;;;5113484;27;20235;-75
2024/01/14 02:46:39;;;;;;;5.45;3.60;;;2.90;1.00;;;;;;5109348;27;20239;-76
2024/01/14 02:49:06;;;;;;;4.63;3.40;;;2.90;1.00;;;;;;5114031;27;20730;-75
2024/01/14 02:51:33;;;;;;;4.35;3.15;;;2.90;1.00;;;;;;5112342;27;20726;-75
2024/01/14 02:54:01;;;;;;;5.03;3.03;;;2.90;1.00;;;;;;5110661;28;21218;-76
2024/01/14 02:56:29;;;;;;;6.72;3.15;;;2.90;1.00;;;;;;5108279;28;20215;-75
2024/01/14 02:58:58;;;;;;;5.72;3.03;;;2.80;1.00;;;;;;5108571;28;20270;-75
2024/01/14 03:01:25;;;;;;;5.05;3.05;;;2.90;1.00;;;;;;5113848;28;20334;-78
2024/01/14 03:03:52;;;;;;;6.10;3.30;;;2.90;1.00;;;;;;5109833;28;21182;-75
2024/01/14 03:06:19;;;;;;;7.95;3.42;;;2.80;1.00;;;;;;5112314;28;20235;-76
2024/01/14 03:08:46;;;;;;;5.07;3.00;;;2.90;1.00;;;;;;5113787;28;20231;-77
2024/01/14 03:11:14;;;;;;;5.82;2.83;;;2.80;1.00;;;;;;5114888;28;20238;-77
2024/01/14 03:13:41;;;;;;;6.07;2.75;;;2.90;1.00;;;;;;5110558;27;20749;-75
2024/01/14 03:16:09;;;;;;;5.30;2.67;;;2.90;1.00;;;;;;5103597;27;20242;-75
2024/01/14 03:18:36;;;;;;;5.55;2.42;;;2.90;1.00;;;;;;5101891;27;20289;-77
2024/01/14 03:21:03;;;;;;;7.85;2.45;;;2.80;1.00;;;;;;5110574;28;20260;-76
2024/01/14 03:23:30;;;;;;;3.92;2.40;;;2.80;1.00;;;;;;5112844;27;20331;-78
2024/01/14 03:25:57;;;;;;;6.93;2.70;;;2.80;1.00;;;;;;5108251;28;20285;-76
2024/01/14 03:28:24;;;;;;;5.60;3.10;;;2.70;1.00;;;;;;5102222;28;20239;-75
2024/01/14 03:30:51;;;;;;;10.02;3.38;;;2.70;1.00;;;;;;5111761;28;20300;-75
2024/01/14 03:33:20;;;;;;;6.72;3.58;;;2.70;1.00;;;;;;5110476;27;20718;-76
2024/01/14 03:35:47;;;;;;;4.75;2.30;;;2.70;1.00;;;;;;5113162;28;21175;-77
2024/01/14 03:38:14;;;;;;;5.30;2.90;;;2.70;1.00;;;;;;5108119;28;20232;-78
2024/01/14 03:40:42;;;;;;;3.42;1.88;;;2.70;1.00;;;;;;5110494;28;20235;-77
2024/01/14 03:43:11;;;;;;;6.80;4.45;;;2.80;1.00;;;;;;5111165;27;20423;-76
2024/01/14 03:45:39;;;;;;;3.97;2.20;;;2.80;1.00;;;;;;5110616;27;20297;-77
2024/01/14 03:48:07;;;;;;;6.30;2.80;;;2.70;1.00;;;;;;5112116;28;20235;-76
2024/01/14 03:50:35;;;;;;;7.10;2.92;;;2.60;1.00;;;;;;5111897;28;20236;-75
2024/01/14 03:53:02;;;;;;;5.10;2.50;;;2.60;1.00;;;;;;5112565;28;20234;-75
2024/01/14 03:55:29;;;;;;;4.90;2.83;;;2.60;1.00;;;;;;5112386;28;20235;-75
2024/01/14 03:57:58;;;;;;;7.10;2.20;;;2.50;1.00;;;;;;5105685;27;20667;-75
2024/01/14 04:00:25;;;;;;;6.60;2.25;;;2.50;1.00;;;;;;5110996;28;20231;-73
2024/01/14 04:02:55;;;;;;;3.58;2.03;;;2.40;1.00;;;;;;5112136;27;20719;-75
2024/01/14 04:05:21;;;;;;;11.45;2.90;;;2.40;1.00;;;;;;5111653;28;20238;-75
2024/01/14 04:07:50;;;;;;;8.65;2.60;;;2.40;1.00;;;;;;5108951;28;20232;-75
2024/01/14 04:10:17;;;;;;;6.95;1.52;;;2.30;1.00;;;;;;5110637;27;20347;-75
2024/01/14 04:12:44;;;;;;;3.80;1.85;;;2.40;1.00;;;;;;5082214;28;20264;-75
2024/01/14 04:15:11;;;;;;;5.43;2.20;;;2.40;1.00;;;;;;5102670;27;20243;-76
2024/01/14 04:17:40;;;;;;;7.03;2.13;;;2.40;1.00;;;;;;5109608;28;20344;-77
2024/01/14 04:20:08;;;;;;;8.90;2.05;;;2.50;1.00;;;;;;5109849;28;20746;-75
2024/01/14 04:22:35;;;;;;;5.93;2.25;;;2.50;1.00;;;;;;5104690;28;20799;-76
2024/01/14 04:25:04;;;;;;;4.43;2.22;;;2.50;1.00;;;;;;5110759;28;20281;-76
2024/01/14 04:27:31;;;;;;;9.68;1.85;;;2.60;1.00;;;;;;5112357;28;20821;-76
2024/01/14 04:29:58;;;;;;;7.38;2.15;;;2.60;1.00;;;;;;5110956;28;20262;-75
2024/01/14 04:32:26;;;;;;;5.00;1.77;;;2.60;1.00;;;;;;5112220;28;20353;-75
2024/01/14 04:34:53;;;;;;;6.85;2.22;;;2.60;1.00;;;;;;5106821;27;20329;-75
2024/01/14 04:37:20;;;;;;;7.97;2.05;;;2.60;1.00;;;;;;5109708;28;20324;-76
2024/01/14 04:39:47;;;;;;;8.73;2.10;;;2.70;1.00;;;;;;5103989;28;20247;-76
2024/01/14 04:42:15;;;;;;;6.50;3.22;;;2.70;1.00;;;;;;5112859;28;20316;-76
2024/01/14 04:44:44;;;;;;;9.40;3.20;;;2.70;1.00;;;;;;5107668;27;20220;-77
2024/01/14 04:47:11;;;;;;;7.53;2.03;;;2.70;1.00;;;;;;5113087;28;20267;-75
2024/01/14 04:49:38;;;;;;;8.63;2.55;;;2.70;1.00;;;;;;5109679;28;20304;-76
2024/01/14 04:52:05;;;;;;;5.00;1.73;;;2.70;1.00;;;;;;5112109;28;20310;-74
2024/01/14 04:54:32;;;;;;;7.43;2.42;;;2.80;1.00;;;;;;5111151;28;20231;-78
2024/01/14 04:57:00;;;;;;;6.63;2.40;;;2.80;1.00;;;;;;5108531;28;20242;-78
2024/01/14 04:59:29;;;;;;;8.40;2.15;;;2.80;1.00;;;;;;5104231;28;20278;-76
2024/01/14 05:01:57;;;;;;;11.57;2.80;;;2.80;1.00;;;;;;5108156;28;20239;-77
2024/01/14 05:04:24;;;;;;;7.13;2.53;;;2.90;1.00;;;;;;5102422;27;20256;-73
2024/01/14 05:06:51;;;;;;;6.18;2.30;;;2.80;1.00;;;;;;5107952;27;20246;-71
2024/01/14 05:09:18;;;;;;;11.98;3.28;;;2.80;1.00;;;;;;5107755;27;21068;-75
2024/01/14 05:11:45;;;;;;;10.93;2.45;;;2.90;1.00;;;;;;5111193;28;20238;-72
2024/01/14 05:14:12;;;;;;;11.70;2.50;;;2.90;1.00;;;;;;5106155;27;20239;-73
2024/01/14 05:16:40;;;;;;;8.02;2.47;;;2.90;1.00;;;;;;5106111;27;20347;-71
2024/01/14 05:19:08;;;;;;;9.27;2.83;;;2.90;1.00;;;;;;5106135;27;20243;-71
2024/01/14 05:21:35;;;;;;;3.80;2.17;;;2.90;1.00;;;;;;5108542;28;20251;-71
2024/01/14 05:24:02;;;;;;;7.00;2.20;;;3.00;1.00;;;;;;5107725;27;20223;-71
2024/01/14 05:26:29;;;;;;;4.85;1.85;;;3.00;1.00;;;;;;5109141;28;20330;-72
2024/01/14 05:28:59;;;;;;;8.65;2.30;;;3.00;1.00;;;;;;5108039;27;20396;-72
2024/01/14 05:31:27;;;;;;;5.75;2.15;;;3.00;1.00;;;;;;5112980;27;20326;-76
2024/01/14 05:33:55;;;;;;;6.03;2.38;;;3.10;1.00;;;;;;5103843;27;20243;-76
2024/01/14 05:36:22;;;;;;;8.15;2.55;;;3.10;1.00;;;;;;5107886;27;20318;-72
2024/01/14 05:38:49;;;;;;;6.70;2.75;;;3.10;1.00;;;;;;5108899;27;20342;-72
2024/01/14 05:41:16;;;;;;;6.65;2.40;;;3.20;1.00;;;;;;5104579;27;20331;-71
2024/01/14 05:43:43;;;;;;;13.27;3.05;;;3.20;1.00;;;;;;5107990;27;20288;-70
2024/01/14 05:46:10;;;;;;;6.03;2.78;;;3.20;1.00;;;;;;5104126;27;20828;-72
2024/01/14 05:48:37;;;;;;;9.48;2.40;;;3.20;1.00;;;;;;5108622;27;20245;-73
2024/01/14 05:51:06;;;;;;;6.00;2.50;;;3.30;1.00;;;;;;5107482;27;20648;-78
2024/01/14 05:53:32;;;;;;;7.85;2.80;;;3.30;1.00;;;;;;5103906;27;22242;-71
2024/01/14 05:56:00;;;;;;;4.85;2.40;;;3.30;1.00;;;;;;5105674;27;20269;-72
2024/01/14 05:58:27;;;;;;;4.95;2.53;;;3.30;1.00;;;;;;5109247;27;20244;-72
2024/01/14 06:00:53;;;;;;;8.30;2.33;;;3.40;1.00;;;;;;5107577;27;21090;-73
2024/01/14 06:03:20;;;;;;;7.03;1.90;;;3.40;1.00;;;;;;5080986;28;20310;-72
2024/01/14 06:05:48;;;;;;;8.10;2.25;;;3.40;1.00;;;;;;5103607;28;20334;-72
2024/01/14 06:08:16;;;;;;;7.25;2.88;;;3.30;1.00;;;;;;5105407;28;20235;-71
2024/01/14 06:10:43;;;;;;;8.70;3.40;;;3.30;1.00;;;;;;5103924;27;20240;-71
2024/01/14 06:13:10;;;;;;;8.27;2.53;;;3.30;1.00;;;;;;5107247;27;20758;-72
2024/01/14 06:15:39;;;;;;;4.97;2.45;;;3.20;1.00;;;;;;5109605;28;20262;-75
2024/01/14 06:18:07;;;;;;;6.72;2.75;;;3.10;1.00;;;;;;5107584;28;20235;-77
2024/01/14 06:20:34;;;;;;;10.13;2.58;;;3.10;1.00;;;;;;5110943;28;20326;-75
2024/01/14 06:23:01;;;;;;;5.40;1.85;;;3.10;1.00;;;;;;5109340;28;20235;-76
2024/01/14 06:25:29;;;;;;;8.57;2.83;;;3.00;1.00;;;;;;5110213;27;20299;-76
2024/01/14 06:27:56;;;;;;;6.28;2.30;;;3.00;1.00;;;;;;5101762;27;20242;-75
2024/01/14 06:30:23;;;;;;;8.70;2.17;;;2.90;1.00;;;;;;5105605;28;20397;-76
2024/01/14 06:32:55;;;;;;;6.72;2.85;;;2.80;1.00;;;;;;5108605;28;20256;-76
2024/01/14 06:35:22;;;;;;;5.00;2.50;;;2.80;1.00;;;;;;5110689;27;20990;-75
2024/01/14 06:37:50;;;;;;;5.78;2.70;;;2.80;1.00;;;;;;5110245;28;20250;-75
2024/01/14 06:40:17;;;;;;;6.88;2.42;;;2.80;1.00;;;;;;5105498;27;21235;-74
2024/01/14 06:42:46;;;;;;;4.65;1.73;;;2.80;1.00;;;;;;5105889;28;20246;-76
2024/01/14 06:45:13;;;;;;;4.30;2.10;;;2.80;1.00;;;;;;5099212;28;21136;-77
2024/01/14 06:47:42;;;;;;;7.95;2.55;;;2.80;1.00;;;;;;5100340;28;21101;-75
2024/01/14 06:50:11;;;;;;;8.20;2.60;;;2.80;1.00;;;;;;5105632;28;20822;-76
2024/01/14 06:52:38;;;;;;;5.75;2.20;;;2.80;1.00;;;;;;5107284;28;21250;-74
2024/01/14 06:55:06;;;;;;;4.80;1.90;;;2.80;1.00;;;;;;5111553;28;21963;-74
2024/01/14 06:57:33;;;;;;;9.68;2.35;;;2.80;1.00;;;;;;5109193;28;20787;-74
2024/01/14 07:00:04;;;;;;;5.00;2.85;;;2.80;1.00;;;;;;5108571;28;20239;-76
2024/01/14 07:02:31;;;;;;;5.22;2.55;;;2.70;1.00;;;;;;5104393;28;20239;-76
2024/01/14 07:04:58;;;;;;;3.47;2.03;;;2.70;1.00;;;;;;5106259;28;20228;-76
2024/01/14 07:07:25;;;;;;;6.65;2.13;;;2.70;1.00;;;;;;5107471;28;20335;-76
2024/01/14 07:09:52;;;;;;;6.78;2.58;;;2.70;1.00;;;;;;5110804;28;20266;-77
2024/01/14 07:12:19;;;;;;;4.35;1.88;;;2.70;1.00;;;;;;5103974;28;20322;-75
2024/01/14 07:14:46;;;;;;;5.93;1.80;;;2.70;1.00;;;;;;5099872;27;20289;-75
2024/01/14 07:17:16;;;;;;;6.20;2.75;;;2.70;1.00;;;;;;5105679;27;20321;-74
2024/01/14 07:19:43;;;;;;;5.30;3.53;;;2.70;1.00;;;;;;5107230;28;20235;-76
2024/01/14 07:22:11;;;;;;;8.57;2.33;;;2.70;1.00;;;;;;5113818;28;20235;-75
2024/01/14 07:24:37;;;;;;;8.25;1.88;;;2.70;1.00;;;;;;5112469;28;20760;-77
2024/01/14 07:27:08;;;;;;;5.03;2.40;;;2.80;1.00;;;;;;5113913;28;20806;-74
2024/01/14 07:29:35;;;;;;;5.13;1.58;;;2.70;1.00;;;;;;5112086;28;20235;-76
2024/01/14 07:32:02;;;;;;;5.25;2.05;;;2.70;1.00;;;;;;5108239;28;20219;-75
2024/01/14 07:34:30;;;;;;;6.45;2.30;;;2.70;1.00;;;;;;5110861;27;20215;-80
2024/01/14 07:36:57;;;;;;;4.95;1.95;;;2.70;1.00;;;;;;5113650;28;20236;-80
2024/01/14 07:39:24;;;;;;;8.23;2.05;;;2.80;1.00;;;;;;5114727;28;20273;-78
2024/01/14 07:41:52;;;;;;;4.38;2.38;;;2.80;1.00;;;;;;5105964;28;20385;-79
2024/01/14 07:44:19;;;;;;;6.10;2.22;;;2.80;1.00;;;;;;5113939;28;20288;-77
2024/01/14 07:46:46;;;;;;;6.10;1.90;;;2.80;1.00;;;;;;5113078;28;20265;-78
2024/01/14 07:49:13;;;;;;;5.47;2.25;;;2.80;1.00;;;;;;5115920;28;20235;-78
2024/01/14 07:51:42;;;;;;;6.95;1.75;;;2.90;1.00;;;;;;5113759;28;22100;-78
2024/01/14 07:54:09;;;;;;;2.72;2.10;;;2.90;1.00;;;;;;5103468;27;20289;-75
2024/01/14 07:56:36;;;;;;;5.13;1.92;;;2.80;1.00;;;;;;5107175;27;21596;-76
2024/01/14 07:59:03;;;;;;;8.85;2.47;;;2.80;1.00;;;;;;5112371;27;20231;-79
2024/01/14 08:01:31;;;;;;;4.65;2.00;;;2.80;1.00;;;;;;5111289;28;20989;-79
2024/01/14 08:03:58;;;;;;;6.07;1.98;;;2.80;1.00;;;;;;5113768;28;20362;-80
2024/01/14 08:06:26;;;;;;;6.15;3.30;;;2.80;1.00;;;;;;5074105;28;20317;-79
2024/01/14 08:08:55;;;;;;;7.50;2.20;;;2.90;1.00;;;;;;5107632;28;20290;-76
2024/01/14 08:11:22;;;;;;;5.53;2.42;;;2.90;1.00;;;;;;5111090;28;20247;-77
2024/01/14 08:13:49;;;;;;;7.68;2.95;;;2.90;1.00;;;;;;5109843;28;20267;-75
2024/01/14 08:16:16;;;;;;;5.78;2.30;;;2.90;1.00;;;;;;5109329;28;20240;-74
2024/01/14 08:18:44;;;;;;;6.65;1.80;;;2.90;1.00;;;;;;5111847;27;20227;-76
2024/01/14 08:21:11;;;;;;;5.35;2.95;;;3.00;1.00;;;;;;5111293;28;20324;-76
2024/01/14 08:23:38;;;;;;;4.80;2.47;;;2.90;1.00;;;;;;5107620;27;20246;-76
2024/01/14 08:26:07;;;;;;;4.55;2.47;;;2.90;1.00;;;;;;5108013;27;20992;-77
2024/01/14 08:28:37;;;;;;;4.50;2.15;;;3.00;1.00;;;;;;5107579;28;20251;-77
2024/01/14 08:31:05;;;;;;;4.05;2.45;;;3.00;1.00;;;;;;5110778;28;20291;-77
2024/01/14 08:33:32;;;;;;;4.68;2.60;;;3.10;1.00;;;;;;5112503;28;20772;-79
2024/01/14 08:36:00;;;;;;;5.18;2.40;;;3.10;1.00;;;;;;5107928;28;20223;-76
2024/01/14 08:38:28;;;;;;;4.20;1.70;;;3.20;1.00;;;;;;5107720;28;21174;-76
2024/01/14 08:40:55;;;;;;;5.18;2.63;;;3.20;1.00;;;;;;5109499;28;20242;-76
2024/01/14 08:43:23;;;;;;;4.72;1.92;;;3.10;1.00;;;;;;5107874;28;20977;-76
2024/01/14 08:45:55;;;;;;;7.55;2.10;;;3.10;1.00;;;;;;5094045;28;20239;-76
2024/01/14 08:48:22;;;;;;;4.03;1.90;;;3.20;1.00;;;;;;5105475;28;20318;-75
2024/01/14 08:50:49;;;;;;;8.07;2.45;;;3.30;1.00;;;;;;5110001;27;20999;-75
2024/01/14 08:53:16;;;;;;;5.70;1.95;;;3.40;1.00;;;;;;5109206;28;20232;-78
2024/01/14 08:55:43;;;;;;;5.60;1.90;;;3.50;1.00;;;;;;5108141;27;20238;-76
2024/01/14 08:58:15;;;;;;;4.07;2.20;;;3.60;1.00;;;;;;5104952;27;20324;-76
2024/01/14 09:00:43;;;;;;;5.40;2.70;;;3.60;1.00;;;;;;5107446;27;20316;-76
2024/01/14 09:03:11;;;;;;;3.75;2.00;;;3.60;1.00;;;;;;5109623;28;20242;-77
2024/01/14 09:05:45;;;;;;;6.78;3.00;;;3.70;1.00;;;;;;5089851;27;20750;-76
2024/01/14 09:08:13;;;;;;;6.38;2.65;;;3.80;1.00;;;;;;5109681;28;20734;-76
2024/01/14 09:10:41;;;;;;;8.05;2.53;;;3.90;1.00;;;;;;5110131;27;20719;-74
2024/01/14 09:13:09;;;;;;;6.22;2.42;;;3.90;1.00;;;;;;5110921;27;20320;-76
2024/01/14 09:15:36;;;;;;;7.60;2.97;;;3.90;1.00;;;;;;5110111;28;20239;-75
2024/01/14 09:18:13;;;;;;;7.80;2.75;;;4.00;1.00;;;;;;5108080;28;21139;-74
2024/01/14 09:20:40;;;;;;;3.38;1.95;;;4.00;1.00;;;;;;5107269;28;20321;-76
2024/01/14 09:23:07;;;;;;;3.05;1.60;;;4.00;1.00;;;;;;5106787;28;20296;-74
2024/01/14 09:25:34;;;;;;;3.17;1.58;;;4.00;1.00;;;;;;5111891;27;21084;-76
2024/01/14 09:28:01;;;;;;;4.65;1.60;;;3.90;1.00;;;;;;5110582;28;20297;-76
2024/01/14 09:30:28;;;;;;;4.15;2.20;;;4.00;1.00;;;;;;5088871;28;20242;-74
2024/01/14 09:32:57;;;;;;;7.18;1.90;;;3.90;1.00;;;;;;5108037;27;20251;-76
2024/01/14 09:35:26;;;;;;;2.53;1.42;;;4.10;1.00;;;;;;5104576;27;20255;-76
2024/01/14 09:37:53;;;;;;;3.70;1.80;;;4.10;1.00;;;;;;5105455;28;20242;-74
2024/01/14 09:40:24;;;;;;;6.38;2.80;;;4.10;1.00;;;;;;5106790;28;20255;-74
2024/01/14 09:42:52;;;;;;;5.00;2.65;;;4.00;1.00;;;;;;5106900;27;20246;-76
2024/01/14 09:45:21;;;;;;;6.97;2.05;;;4.00;1.00;;;;;;5106531;28;20334;-76
2024/01/14 09:47:49;;;;;;;5.35;2.00;;;4.10;1.00;;;;;;5087885;28;20239;-75
2024/01/14 09:50:16;;;;;;;5.90;2.30;;;4.30;1.00;;;;;;5106577;28;20258;-83
2024/01/14 09:52:45;;;;;;;7.22;2.35;;;4.30;1.00;;;;;;5096949;27;20330;-74
2024/01/14 09:55:11;;;;;;;2.90;1.50;;;4.30;1.00;;;;;;5102795;28;20246;-76
2024/01/14 09:57:40;;;;;;;4.80;2.22;;;4.30;1.00;;;;;;5108748;28;20375;-73
2024/01/14 10:00:08;;;;;;;8.93;2.65;;;4.20;1.00;;;;;;5104408;28;20231;-76
2024/01/14 10:02:36;;;;;;;5.50;2.25;;;4.10;1.00;;;;;;5105903;28;20255;-74
2024/01/14 10:05:03;;;;;;;4.70;2.97;;;4.10;1.00;;;;;;5105673;27;20235;-76
2024/01/14 10:07:34;;;;;;;3.20;2.00;;;4.00;1.00;;;;;;5099081;27;20238;-75
2024/01/14 10:10:07;;;;;;;4.57;2.10;;;4.00;1.00;;;;;;5110090;27;21025;-76
2024/01/14 10:12:35;;;;;;;5.57;2.92;;;3.90;1.00;;;;;;5105968;27;21064;-76
2024/01/14 10:15:03;;;;;;;4.53;2.00;;;4.00;1.00;;;;;;5112105;27;20980;-76
2024/01/14 10:17:31;;;;;;;5.78;2.45;;;4.00;1.00;;;;;;5095467;27;20391;-76
2024/01/14 10:20:01;;;;;;;8.00;2.00;;;4.00;1.00;;;;;;5107471;28;20314;-76
2024/01/14 10:22:28;;;;;;;5.07;2.15;;;4.00;1.00;;;;;;5110275;27;20257;-76
2024/01/14 10:24:57;;;;;;;5.65;2.63;;;4.10;1.00;;;;;;5110299;28;20246;-75
2024/01/14 10:27:27;;;;;;;7.00;2.35;;;4.10;1.00;;;;;;5108604;28;20244;-75
2024/01/14 10:29:54;;;;;;;4.40;2.35;;;4.10;1.00;;;;;;5090392;28;20240;-77
2024/01/14 10:32:20;;;;;;;6.35;2.30;;;4.20;1.00;;;;;;5108550;28;20251;-75
2024/01/14 10:34:47;;;;;;;6.25;2.10;;;4.20;1.00;;;;;;5103416;28;20778;-77
2024/01/14 10:37:16;;;;;;;5.45;2.25;;;4.30;1.00;;;;;;5105575;28;20711;-73
2024/01/14 10:39:45;;;;;;;8.35;2.15;;;4.40;1.00;;;;;;5105375;28;20312;-75
2024/01/14 10:42:12;;;;;;;5.55;2.67;;;4.60;1.00;;;;;;5102315;27;21215;-76
2024/01/14 10:44:42;;;;;;;5.18;2.40;;;4.70;1.00;;;;;;5108719;27;20319;-76
2024/01/14 10:47:10;;;;;;;4.53;2.13;;;4.80;1.00;;;;;;5111537;28;20335;-75
2024/01/14 10:49:43;;;;;;;5.35;2.20;;;4.80;1.00;;;;;;5105468;27;20288;-75
2024/01/14 10:52:11;;;;;;;5.22;2.10;;;4.90;1.00;;;;;;5107723;28;20236;-76
2024/01/14 10:54:45;;;;;;;5.68;1.90;;;4.70;1.00;;;;;;5094831;27;20239;-75
2024/01/14 10:57:23;;;;;;;7.57;2.80;;;4.60;1.00;;;;;;5103418;27;20238;-77
2024/01/14 10:59:57;;;;;;;2.63;2.10;;;4.40;1.00;;;;;;5114859;27;20752;-76
2024/01/14 11:02:27;;;;;;;11.57;2.45;;;4.30;1.00;;;;;;5113949;28;20599;-78
2024/01/14 11:04:55;;;;;;;6.45;2.58;;;4.30;1.00;;;;;;5115008;27;21052;-77
2024/01/14 11:07:23;;;;;;;7.40;2.60;;;4.40;1.00;;;;;;5102292;27;21037;-77
2024/01/14 11:09:52;;;;;;;8.10;2.85;;;4.50;1.00;;;;;;5113218;27;20319;-79
2024/01/14 11:12:23;;;;;;;8.23;3.22;;;4.60;1.00;;;;;;5114732;28;20242;-80
2024/01/14 11:15:00;;;;;;;6.88;2.60;;;4.70;1.00;;;;;;5117183;27;20373;-79
2024/01/14 11:17:42;;;;;;;5.10;2.80;;;4.90;1.00;;;;;;5117505;28;20233;-80
2024/01/14 11:20:15;;;;;;;7.47;2.53;;;4.90;1.00;;;;;;5119240;27;20326;-81
2024/01/14 11:22:45;;;;;;;5.88;3.03;;;5.10;1.00;;;;;;5122232;27;20239;-83
2024/01/14 11:25:16;;;;;;;7.78;3.65;;;5.10;1.00;;;;;;5119323;27;20240;-82
2024/01/14 11:27:49;;;;;;;6.93;2.35;;;5.20;1.00;;;;;;5115357;28;20798;-80
2024/01/14 11:30:21;;;;;;;7.28;3.00;;;5.40;1.00;;;;;;5120233;28;20236;-77
2024/01/14 11:32:48;;;;;;;5.03;2.22;;;5.40;1.00;;;;;;5120893;27;20306;-80
2024/01/14 11:35:33;;;;;;;3.67;2.25;;;5.40;1.00;;;;;;5113463;27;20248;-76
2024/01/14 11:38:01;;;;;;;6.20;2.40;;;5.50;1.00;;;;;;5108964;27;20289;-78
2024/01/14 11:40:29;;;;;;;4.30;2.65;;;5.60;1.00;;;;;;5113333;27;20313;-76
2024/01/14 11:43:02;;;;;;;7.05;4.15;;;5.60;1.00;;;;;;5076195;27;20735;-75
2024/01/14 11:45:51;;;;;;;3.72;2.58;;;5.60;1.00;;;;;;5114034;27;20727;-77
2024/01/14 11:48:21;;;;;;;6.75;3.20;;;5.40;1.00;;;;;;5114052;27;20346;-74
2024/01/14 11:50:50;;;;;;;4.85;2.83;;;5.20;1.00;;;;;;5118875;28;20383;-76
2024/01/14 11:53:19;;;;;;;4.75;2.30;;;5.10;1.00;;;;;;5096585;27;20294;-78
2024/01/14 11:55:51;;;;;;;7.00;3.13;;;5.00;1.00;;;;;;5111210;27;20223;-77
2024/01/14 11:58:22;;;;;;;7.43;2.20;;;4.80;1.00;;;;;;5107603;27;20234;-76
2024/01/14 12:00:52;;;;;;;6.13;2.95;;;4.70;1.00;;;;;;5113591;27;20715;-77
2024/01/14 12:03:20;;;;;;;2.63;1.90;;;4.70;1.00;;;;;;5115952;27;20849;-79
2024/01/14 12:05:48;;;;;;;4.97;2.30;;;4.70;1.00;;;;;;5110922;27;20240;-77
2024/01/14 12:08:18;;;;;;;4.65;2.42;;;4.70;1.00;;;;;;5110682;27;20239;-78
2024/01/14 12:10:45;;;;;;;6.70;2.40;;;4.70;1.00;;;;;;5113734;27;20266;-77
2024/01/14 12:13:14;;;;;;;7.40;2.65;;;4.70;1.00;;;;;;5111635;28;20263;-77
2024/01/14 12:15:42;;;;;;;5.32;2.30;;;4.70;1.00;;;;;;5111561;27;20244;-77
2024/01/14 12:18:14;;;;;;;3.20;2.38;;;4.80;1.00;;;;;;5114679;27;20236;-78
2024/01/14 12:20:43;;;;;;;7.82;3.53;;;4.80;1.00;;;;;;5114889;27;20244;-76
2024/01/14 12:23:11;;;;;;;4.95;2.53;;;4.90;1.00;;;;;;5114981;27;20242;-78
2024/01/14 12:25:40;;;;;;;4.03;3.05;;;4.90;1.00;;;;;;5111336;28;20247;-80
2024/01/14 12:28:07;;;;;;;4.50;1.95;;;4.90;1.00;;;;;;5111102;28;20319;-77
2024/01/14 12:30:35;;;;;;;6.03;2.63;;;4.80;1.00;;;;;;5115178;27;20711;-78
2024/01/14 12:33:10;;;;;;;4.00;2.17;;;4.80;1.00;;;;;;5107629;27;20272;-77
2024/01/14 12:35:39;;;;;;;5.50;2.25;;;4.70;1.00;;;;;;5108604;28;20238;-78
2024/01/14 12:38:09;;;;;;;3.80;2.50;;;4.60;1.00;;;;;;5114034;28;20275;-78
2024/01/14 12:40:37;;;;;;;2.95;1.65;;;4.60;1.00;;;;;;5113938;27;20223;-78
2024/01/14 12:43:07;;;;;;;2.90;2.13;;;4.50;1.00;;;;;;5088124;27;20233;-77
2024/01/14 12:45:46;;;;;;;7.40;2.50;;;4.50;1.00;;;;;;5103493;28;20741;-78
2024/01/14 12:48:19;;;;;;;6.25;2.55;;;4.70;1.00;;;;;;5111081;28;20227;-76
2024/01/14 12:50:48;;;;;;;4.70;2.47;;;4.70;1.00;;;;;;5111539;28;20247;-77
2024/01/14 12:53:19;;;;;;;4.35;3.05;;;4.80;1.00;;;;;;5113428;27;20227;-80
2024/01/14 12:55:47;;;;;;;5.97;2.40;;;4.70;1.00;;;;;;5107952;27;20228;-78
2024/01/14 12:58:14;;;;;;;4.55;2.70;;;4.70;1.00;;;;;;5108140;28;20232;-77
2024/01/14 13:00:43;;;;;;;3.03;2.10;;;4.70;1.00;;;;;;5112742;27;20325;-78
2024/01/14 13:03:11;;;;;;;2.83;2.35;;;4.60;1.00;;;;;;5114517;27;20703;-76
2024/01/14 13:05:40;;;;;;;5.75;2.90;;;4.70;1.00;;;;;;5110659;28;20236;-77
2024/01/14 13:08:09;;;;;;;4.97;2.28;;;4.50;1.00;;;;;;5110839;27;20346;-77
2024/01/14 13:10:40;;;;;;;6.80;2.90;;;4.50;1.00;;;;;;5113400;28;20226;-77
2024/01/14 13:13:07;;;;;;;10.10;2.47;;;4.50;1.00;;;;;;5111394;28;20274;-76